sensor_id;sensor_type;location;lat;lon;timestamp;P1;durP1;ratioP1;P2;durP2;ratioP2
359;SDS011;168;48.872;9.226;2023-04-15T00:00:21;7.43;;;6.77;;
359;SDS011;168;48.872;9.226;2023-04-15T00:02:48;7.73;;;6.83;;
359;SDS011;168;48.872;9.226;2023-04-15T00:05:17;8.70;;;6.60;;
359;SDS011;168;48.872;9.226;2023-04-15T00:07:44;7.87;;;7.07;;
359;SDS011;168;48.872;9.226;2023-04-15T00:10:12;7.33;;;6.27;;
359;SDS011;168;48.872;9.226;2023-04-15T00:12:40;8.00;;;7.20;;
359;SDS011;168;48.872;9.226;2023-04-15T00:15:07;6.90;;;6.20;;
359;SDS011;168;48.872;9.226;2023-04-15T00:17:37;7.57;;;6.87;;
359;SDS011;168;48.872;9.226;2023-04-15T00:20:05;7.60;;;6.90;;
359;SDS011;168;48.872;9.226;2023-04-15T00:22:34;8.27;;;7.47;;
359;SDS011;168;48.872;9.226;2023-04-15T00:25:01;7.50;;;6.30;;
359;SDS011;168;48.872;9.226;2023-04-15T00:27:29;11.67;;;7.10;;
359;SDS011;168;48.872;9.226;2023-04-15T00:29:56;7.23;;;6.63;;
359;SDS011;168;48.872;9.226;2023-04-15T00:32:24;7.03;;;6.40;;
359;SDS011;168;48.872;9.226;2023-04-15T00:34:51;8.87;;;7.67;;
359;SDS011;168;48.872;9.226;2023-04-15T00:37:18;11.93;;;7.10;;
359;SDS011;168;48.872;9.226;2023-04-15T00:39:47;8.67;;;7.00;;
359;SDS011;168;48.872;9.226;2023-04-15T00:42:15;7.87;;;7.07;;
359;SDS011;168;48.872;9.226;2023-04-15T00:44:43;8.33;;;6.90;;
359;SDS011;168;48.872;9.226;2023-04-15T00:47:11;7.67;;;6.87;;
359;SDS011;168;48.872;9.226;2023-04-15T00:49:39;10.10;;;7.40;;
359;SDS011;168;48.872;9.226;2023-04-15T00:52:06;10.43;;;8.00;;
359;SDS011;168;48.872;9.226;2023-04-15T00:54:34;9.90;;;6.50;;
359;SDS011;168;48.872;9.226;2023-04-15T00:57:05;9.93;;;8.30;;
359;SDS011;168;48.872;9.226;2023-04-15T00:59:34;7.30;;;6.33;;
359;SDS011;168;48.872;9.226;2023-04-15T01:02:01;7.70;;;6.93;;
359;SDS011;168;48.872;9.226;2023-04-15T01:04:29;9.03;;;7.13;;
359;SDS011;168;48.872;9.226;2023-04-15T01:06:57;9.27;;;7.47;;
359;SDS011;168;48.872;9.226;2023-04-15T01:09:24;8.03;;;7.10;;
359;SDS011;168;48.872;9.226;2023-04-15T01:11:51;9.07;;;6.80;;
359;SDS011;168;48.872;9.226;2023-04-15T01:14:20;8.07;;;6.13;;
359;SDS011;168;48.872;9.226;2023-04-15T01:16:48;7.70;;;6.50;;
359;SDS011;168;48.872;9.226;2023-04-15T01:19:15;8.77;;;6.80;;
359;SDS011;168;48.872;9.226;2023-04-15T01:21:43;7.63;;;6.87;;
359;SDS011;168;48.872;9.226;2023-04-15T01:24:11;7.57;;;6.77;;
359;SDS011;168;48.872;9.226;2023-04-15T01:26:42;6.83;;;6.33;;
359;SDS011;168;48.872;9.226;2023-04-15T01:29:11;10.00;;;7.77;;
359;SDS011;168;48.872;9.226;2023-04-15T01:31:38;7.40;;;6.70;;
359;SDS011;168;48.872;9.226;2023-04-15T01:34:06;7.20;;;6.50;;
359;SDS011;168;48.872;9.226;2023-04-15T01:36:33;8.80;;;7.03;;
359;SDS011;168;48.872;9.226;2023-04-15T01:39:01;7.93;;;6.43;;
359;SDS011;168;48.872;9.226;2023-04-15T01:41:30;8.53;;;7.00;;
359;SDS011;168;48.872;9.226;2023-04-15T01:43:58;8.00;;;7.20;;
359;SDS011;168;48.872;9.226;2023-04-15T01:46:26;6.90;;;6.30;;
359;SDS011;168;48.872;9.226;2023-04-15T01:48:53;7.20;;;6.50;;
359;SDS011;168;48.872;9.226;2023-04-15T01:51:21;9.33;;;6.47;;
359;SDS011;168;48.872;9.226;2023-04-15T01:53:48;7.37;;;6.30;;
359;SDS011;168;48.872;9.226;2023-04-15T01:56:16;7.97;;;7.17;;
359;SDS011;168;48.872;9.226;2023-04-15T01:58:44;11.47;;;7.13;;
359;SDS011;168;48.872;9.226;2023-04-15T02:01:13;7.03;;;6.47;;
359;SDS011;168;48.872;9.226;2023-04-15T02:03:41;7.70;;;6.43;;
359;SDS011;168;48.872;9.226;2023-04-15T02:06:08;9.20;;;6.60;;
359;SDS011;168;48.872;9.226;2023-04-15T02:08:36;7.67;;;6.90;;
359;SDS011;168;48.872;9.226;2023-04-15T02:11:03;8.23;;;7.53;;
359;SDS011;168;48.872;9.226;2023-04-15T02:13:30;10.00;;;6.80;;
359;SDS011;168;48.872;9.226;2023-04-15T02:15:58;8.70;;;7.90;;
359;SDS011;168;48.872;9.226;2023-04-15T02:18:26;7.87;;;7.13;;
359;SDS011;168;48.872;9.226;2023-04-15T02:20:54;7.27;;;6.57;;
359;SDS011;168;48.872;9.226;2023-04-15T02:23:23;8.40;;;7.57;;
359;SDS011;168;48.872;9.226;2023-04-15T02:25:50;10.00;;;7.47;;
359;SDS011;168;48.872;9.226;2023-04-15T02:28:17;7.80;;;7.10;;
359;SDS011;168;48.872;9.226;2023-04-15T02:30:46;7.77;;;6.83;;
359;SDS011;168;48.872;9.226;2023-04-15T02:33:15;13.10;;;7.17;;
359;SDS011;168;48.872;9.226;2023-04-15T02:35:43;11.73;;;7.20;;
359;SDS011;168;48.872;9.226;2023-04-15T02:38:11;8.27;;;7.47;;
359;SDS011;168;48.872;9.226;2023-04-15T02:40:41;9.17;;;8.27;;
359;SDS011;168;48.872;9.226;2023-04-15T02:43:08;9.47;;;8.23;;
359;SDS011;168;48.872;9.226;2023-04-15T02:45:36;10.30;;;9.20;;
359;SDS011;168;48.872;9.226;2023-04-15T02:48:03;10.50;;;8.40;;
359;SDS011;168;48.872;9.226;2023-04-15T02:50:31;11.40;;;8.33;;
359;SDS011;168;48.872;9.226;2023-04-15T02:52:59;9.10;;;7.90;;
359;SDS011;168;48.872;9.226;2023-04-15T02:55:27;12.50;;;9.70;;
359;SDS011;168;48.872;9.226;2023-04-15T02:57:55;9.43;;;8.53;;
359;SDS011;168;48.872;9.226;2023-04-15T03:00:24;9.80;;;8.73;;
359;SDS011;168;48.872;9.226;2023-04-15T03:02:56;9.37;;;7.93;;
359;SDS011;168;48.872;9.226;2023-04-15T03:05:24;8.50;;;7.40;;
359;SDS011;168;48.872;9.226;2023-04-15T03:07:52;8.20;;;7.50;;
359;SDS011;168;48.872;9.226;2023-04-15T03:10:21;9.10;;;8.20;;
359;SDS011;168;48.872;9.226;2023-04-15T03:12:48;9.30;;;8.30;;
359;SDS011;168;48.872;9.226;2023-04-15T03:15:16;9.63;;;8.63;;
359;SDS011;168;48.872;9.226;2023-04-15T03:17:43;9.20;;;8.10;;
359;SDS011;168;48.872;9.226;2023-04-15T03:20:10;8.67;;;7.40;;
359;SDS011;168;48.872;9.226;2023-04-15T03:22:38;8.97;;;7.40;;
359;SDS011;168;48.872;9.226;2023-04-15T03:25:06;11.60;;;8.10;;
359;SDS011;168;48.872;9.226;2023-04-15T03:27:36;13.97;;;8.40;;
359;SDS011;168;48.872;9.226;2023-04-15T03:30:04;9.20;;;7.90;;
359;SDS011;168;48.872;9.226;2023-04-15T03:32:33;9.03;;;7.53;;
359;SDS011;168;48.872;9.226;2023-04-15T03:35:00;10.03;;;7.87;;
359;SDS011;168;48.872;9.226;2023-04-15T03:37:28;7.60;;;6.90;;
359;SDS011;168;48.872;9.226;2023-04-15T03:39:55;8.17;;;7.17;;
359;SDS011;168;48.872;9.226;2023-04-15T03:42:23;8.77;;;7.83;;
359;SDS011;168;48.872;9.226;2023-04-15T03:44:51;9.20;;;8.30;;
359;SDS011;168;48.872;9.226;2023-04-15T03:47:18;8.17;;;7.37;;
359;SDS011;168;48.872;9.226;2023-04-15T03:49:46;7.67;;;6.97;;
359;SDS011;168;48.872;9.226;2023-04-15T03:52:13;9.03;;;7.77;;
359;SDS011;168;48.872;9.226;2023-04-15T03:54:40;9.07;;;7.93;;
359;SDS011;168;48.872;9.226;2023-04-15T03:57:08;7.90;;;7.20;;
359;SDS011;168;48.872;9.226;2023-04-15T03:59:35;6.80;;;6.20;;
359;SDS011;168;48.872;9.226;2023-04-15T04:02:04;8.13;;;7.23;;
359;SDS011;168;48.872;9.226;2023-04-15T04:04:31;8.30;;;6.70;;
359;SDS011;168;48.872;9.226;2023-04-15T04:06:58;9.37;;;6.20;;
359;SDS011;168;48.872;9.226;2023-04-15T04:09:26;7.47;;;6.70;;
359;SDS011;168;48.872;9.226;2023-04-15T04:11:53;6.80;;;6.20;;
359;SDS011;168;48.872;9.226;2023-04-15T04:14:20;6.60;;;6.00;;
359;SDS011;168;48.872;9.226;2023-04-15T04:16:53;7.73;;;6.93;;
359;SDS011;168;48.872;9.226;2023-04-15T04:19:22;8.70;;;7.57;;
359;SDS011;168;48.872;9.226;2023-04-15T04:21:50;7.43;;;6.73;;
359;SDS011;168;48.872;9.226;2023-04-15T04:24:17;8.00;;;7.20;;
359;SDS011;168;48.872;9.226;2023-04-15T04:26:45;7.93;;;7.13;;
359;SDS011;168;48.872;9.226;2023-04-15T04:29:12;7.97;;;7.13;;
359;SDS011;168;48.872;9.226;2023-04-15T04:31:40;8.77;;;6.50;;
359;SDS011;168;48.872;9.226;2023-04-15T04:34:07;7.60;;;7.00;;
359;SDS011;168;48.872;9.226;2023-04-15T04:36:36;7.80;;;6.47;;
359;SDS011;168;48.872;9.226;2023-04-15T04:39:03;7.40;;;6.37;;
359;SDS011;168;48.872;9.226;2023-04-15T04:41:30;9.37;;;7.07;;
359;SDS011;168;48.872;9.226;2023-04-15T04:43:58;8.80;;;7.47;;
359;SDS011;168;48.872;9.226;2023-04-15T04:46:25;7.70;;;6.97;;
359;SDS011;168;48.872;9.226;2023-04-15T04:48:53;11.93;;;7.60;;
359;SDS011;168;48.872;9.226;2023-04-15T04:51:20;7.80;;;7.10;;
359;SDS011;168;48.872;9.226;2023-04-15T04:53:49;10.20;;;7.23;;
359;SDS011;168;48.872;9.226;2023-04-15T04:56:16;8.73;;;7.97;;
359;SDS011;168;48.872;9.226;2023-04-15T04:58:43;8.80;;;7.67;;
359;SDS011;168;48.872;9.226;2023-04-15T05:01:11;9.60;;;8.30;;
359;SDS011;168;48.872;9.226;2023-04-15T05:03:38;10.03;;;9.03;;
359;SDS011;168;48.872;9.226;2023-04-15T05:06:06;11.87;;;8.70;;
359;SDS011;168;48.872;9.226;2023-04-15T05:08:33;9.90;;;8.90;;
359;SDS011;168;48.872;9.226;2023-04-15T05:11:02;11.60;;;9.60;;
359;SDS011;168;48.872;9.226;2023-04-15T05:13:29;10.13;;;8.70;;
359;SDS011;168;48.872;9.226;2023-04-15T05:15:56;9.20;;;8.30;;
359;SDS011;168;48.872;9.226;2023-04-15T05:18:24;9.97;;;9.03;;
359;SDS011;168;48.872;9.226;2023-04-15T05:20:51;11.43;;;9.00;;
359;SDS011;168;48.872;9.226;2023-04-15T05:23:18;9.53;;;8.63;;
359;SDS011;168;48.872;9.226;2023-04-15T05:25:46;10.40;;;9.30;;
359;SDS011;168;48.872;9.226;2023-04-15T05:28:14;12.13;;;9.17;;
359;SDS011;168;48.872;9.226;2023-04-15T05:30:42;12.50;;;9.80;;
359;SDS011;168;48.872;9.226;2023-04-15T05:33:09;13.67;;;9.80;;
359;SDS011;168;48.872;9.226;2023-04-15T05:35:37;9.90;;;8.80;;
359;SDS011;168;48.872;9.226;2023-04-15T05:38:04;14.40;;;9.40;;
359;SDS011;168;48.872;9.226;2023-04-15T05:40:31;11.20;;;8.87;;
359;SDS011;168;48.872;9.226;2023-04-15T05:42:59;10.23;;;9.00;;
359;SDS011;168;48.872;9.226;2023-04-15T05:45:27;9.47;;;8.50;;
359;SDS011;168;48.872;9.226;2023-04-15T05:47:55;8.57;;;7.73;;
359;SDS011;168;48.872;9.226;2023-04-15T05:50:22;9.50;;;8.17;;
359;SDS011;168;48.872;9.226;2023-04-15T05:52:49;10.20;;;8.83;;
359;SDS011;168;48.872;9.226;2023-04-15T05:55:16;11.13;;;7.93;;
359;SDS011;168;48.872;9.226;2023-04-15T05:57:44;8.73;;;7.93;;
359;SDS011;168;48.872;9.226;2023-04-15T06:00:12;10.00;;;8.07;;
359;SDS011;168;48.872;9.226;2023-04-15T06:02:41;13.30;;;8.70;;
359;SDS011;168;48.872;9.226;2023-04-15T06:05:09;10.60;;;8.10;;
359;SDS011;168;48.872;9.226;2023-04-15T06:07:36;10.10;;;8.20;;
359;SDS011;168;48.872;9.226;2023-04-15T06:10:04;9.57;;;8.10;;
359;SDS011;168;48.872;9.226;2023-04-15T06:12:33;10.33;;;8.40;;
359;SDS011;168;48.872;9.226;2023-04-15T06:15:00;11.53;;;8.90;;
359;SDS011;168;48.872;9.226;2023-04-15T06:17:28;9.90;;;7.67;;
359;SDS011;168;48.872;9.226;2023-04-15T06:19:57;9.30;;;8.33;;
359;SDS011;168;48.872;9.226;2023-04-15T06:22:24;8.60;;;7.73;;
359;SDS011;168;48.872;9.226;2023-04-15T06:24:51;8.77;;;7.87;;
359;SDS011;168;48.872;9.226;2023-04-15T06:27:19;9.87;;;8.20;;
359;SDS011;168;48.872;9.226;2023-04-15T06:29:47;8.50;;;7.57;;
359;SDS011;168;48.872;9.226;2023-04-15T06:32:14;9.63;;;7.67;;
359;SDS011;168;48.872;9.226;2023-04-15T06:34:42;7.53;;;6.93;;
359;SDS011;168;48.872;9.226;2023-04-15T06:37:11;8.87;;;8.03;;
359;SDS011;168;48.872;9.226;2023-04-15T06:39:40;8.87;;;7.97;;
359;SDS011;168;48.872;9.226;2023-04-15T06:42:09;11.97;;;8.80;;
359;SDS011;168;48.872;9.226;2023-04-15T06:44:37;8.03;;;7.33;;
359;SDS011;168;48.872;9.226;2023-04-15T06:47:04;11.23;;;8.47;;
359;SDS011;168;48.872;9.226;2023-04-15T06:49:31;10.10;;;8.50;;
359;SDS011;168;48.872;9.226;2023-04-15T06:51:59;7.53;;;6.83;;
359;SDS011;168;48.872;9.226;2023-04-15T06:54:28;9.53;;;8.13;;
359;SDS011;168;48.872;9.226;2023-04-15T06:56:56;9.30;;;7.17;;
359;SDS011;168;48.872;9.226;2023-04-15T06:59:23;8.23;;;7.43;;
359;SDS011;168;48.872;9.226;2023-04-15T07:01:51;9.07;;;8.17;;
359;SDS011;168;48.872;9.226;2023-04-15T07:04:19;8.20;;;6.80;;
359;SDS011;168;48.872;9.226;2023-04-15T07:06:46;7.63;;;6.80;;
359;SDS011;168;48.872;9.226;2023-04-15T07:09:13;7.40;;;6.70;;
359;SDS011;168;48.872;9.226;2023-04-15T07:11:42;8.13;;;6.07;;
359;SDS011;168;48.872;9.226;2023-04-15T07:14:09;8.33;;;6.17;;
359;SDS011;168;48.872;9.226;2023-04-15T07:16:37;7.70;;;7.00;;
359;SDS011;168;48.872;9.226;2023-04-15T07:19:05;8.07;;;6.40;;
359;SDS011;168;48.872;9.226;2023-04-15T07:21:32;6.93;;;6.33;;
359;SDS011;168;48.872;9.226;2023-04-15T07:23:59;9.40;;;6.77;;
359;SDS011;168;48.872;9.226;2023-04-15T07:26:27;7.30;;;6.67;;
359;SDS011;168;48.872;9.226;2023-04-15T07:28:56;7.23;;;6.63;;
359;SDS011;168;48.872;9.226;2023-04-15T07:31:23;8.20;;;6.70;;
359;SDS011;168;48.872;9.226;2023-04-15T07:33:50;7.57;;;6.87;;
359;SDS011;168;48.872;9.226;2023-04-15T07:36:18;9.83;;;6.97;;
359;SDS011;168;48.872;9.226;2023-04-15T07:38:45;7.53;;;6.80;;
359;SDS011;168;48.872;9.226;2023-04-15T07:41:12;9.27;;;7.33;;
359;SDS011;168;48.872;9.226;2023-04-15T07:43:40;7.80;;;7.00;;
359;SDS011;168;48.872;9.226;2023-04-15T07:46:09;8.40;;;7.47;;
359;SDS011;168;48.872;9.226;2023-04-15T07:48:36;8.27;;;6.73;;
359;SDS011;168;48.872;9.226;2023-04-15T07:51:04;7.80;;;7.07;;
359;SDS011;168;48.872;9.226;2023-04-15T07:53:32;8.30;;;7.47;;
359;SDS011;168;48.872;9.226;2023-04-15T07:55:59;8.70;;;6.60;;
359;SDS011;168;48.872;9.226;2023-04-15T07:58:27;7.50;;;6.43;;
359;SDS011;168;48.872;9.226;2023-04-15T08:00:54;6.80;;;6.10;;
359;SDS011;168;48.872;9.226;2023-04-15T08:03:23;8.53;;;6.30;;
359;SDS011;168;48.872;9.226;2023-04-15T08:05:51;10.37;;;6.90;;
359;SDS011;168;48.872;9.226;2023-04-15T08:08:18;8.70;;;7.30;;
359;SDS011;168;48.872;9.226;2023-04-15T08:10:46;12.37;;;8.03;;
359;SDS011;168;48.872;9.226;2023-04-15T08:13:14;11.30;;;7.40;;
359;SDS011;168;48.872;9.226;2023-04-15T08:15:41;6.70;;;6.10;;
359;SDS011;168;48.872;9.226;2023-04-15T08:18:09;8.10;;;6.37;;
359;SDS011;168;48.872;9.226;2023-04-15T08:20:37;7.60;;;6.97;;
359;SDS011;168;48.872;9.226;2023-04-15T08:23:05;9.53;;;8.43;;
359;SDS011;168;48.872;9.226;2023-04-15T08:25:32;7.30;;;6.70;;
359;SDS011;168;48.872;9.226;2023-04-15T08:28:02;7.57;;;6.10;;
359;SDS011;168;48.872;9.226;2023-04-15T08:30:31;7.50;;;6.60;;
359;SDS011;168;48.872;9.226;2023-04-15T08:32:59;7.70;;;6.30;;
359;SDS011;168;48.872;9.226;2023-04-15T08:35:26;6.30;;;5.70;;
359;SDS011;168;48.872;9.226;2023-04-15T08:37:55;5.63;;;5.13;;
359;SDS011;168;48.872;9.226;2023-04-15T08:40:22;6.97;;;6.20;;
359;SDS011;168;48.872;9.226;2023-04-15T08:42:56;8.93;;;8.10;;
359;SDS011;168;48.872;9.226;2023-04-15T08:45:25;8.53;;;6.90;;
359;SDS011;168;48.872;9.226;2023-04-15T08:47:53;10.67;;;7.17;;
359;SDS011;168;48.872;9.226;2023-04-15T08:50:22;9.60;;;6.40;;
359;SDS011;168;48.872;9.226;2023-04-15T08:52:54;6.10;;;5.50;;
359;SDS011;168;48.872;9.226;2023-04-15T08:55:23;7.07;;;5.40;;
359;SDS011;168;48.872;9.226;2023-04-15T08:57:53;5.10;;;4.67;;
359;SDS011;168;48.872;9.226;2023-04-15T09:00:21;5.40;;;4.43;;
359;SDS011;168;48.872;9.226;2023-04-15T09:02:50;4.97;;;4.50;;
359;SDS011;168;48.872;9.226;2023-04-15T09:05:18;5.47;;;4.30;;
359;SDS011;168;48.872;9.226;2023-04-15T09:07:46;5.40;;;4.40;;
359;SDS011;168;48.872;9.226;2023-04-15T09:10:14;7.70;;;4.50;;
359;SDS011;168;48.872;9.226;2023-04-15T09:12:42;6.67;;;5.50;;
359;SDS011;168;48.872;9.226;2023-04-15T09:15:10;6.37;;;4.77;;
359;SDS011;168;48.872;9.226;2023-04-15T09:17:40;7.00;;;5.33;;
359;SDS011;168;48.872;9.226;2023-04-15T09:20:09;6.50;;;5.90;;
359;SDS011;168;48.872;9.226;2023-04-15T09:22:38;5.63;;;5.20;;
359;SDS011;168;48.872;9.226;2023-04-15T09:25:18;6.90;;;5.60;;
359;SDS011;168;48.872;9.226;2023-04-15T09:27:53;5.63;;;5.07;;
359;SDS011;168;48.872;9.226;2023-04-15T09:30:22;6.53;;;5.50;;
359;SDS011;168;48.872;9.226;2023-04-15T09:32:50;5.33;;;4.87;;
359;SDS011;168;48.872;9.226;2023-04-15T09:35:18;6.83;;;6.13;;
359;SDS011;168;48.872;9.226;2023-04-15T09:37:46;8.13;;;6.27;;
359;SDS011;168;48.872;9.226;2023-04-15T09:40:13;6.37;;;5.77;;
359;SDS011;168;48.872;9.226;2023-04-15T09:42:54;6.30;;;5.70;;
359;SDS011;168;48.872;9.226;2023-04-15T09:45:22;4.73;;;4.33;;
359;SDS011;168;48.872;9.226;2023-04-15T09:47:50;6.20;;;5.60;;
359;SDS011;168;48.872;9.226;2023-04-15T09:50:18;6.07;;;5.47;;
359;SDS011;168;48.872;9.226;2023-04-15T09:52:46;5.93;;;5.43;;
359;SDS011;168;48.872;9.226;2023-04-15T09:55:13;5.67;;;5.27;;
359;SDS011;168;48.872;9.226;2023-04-15T09:57:44;6.70;;;6.10;;
359;SDS011;168;48.872;9.226;2023-04-15T10:00:14;6.80;;;5.93;;
359;SDS011;168;48.872;9.226;2023-04-15T10:02:42;6.73;;;5.20;;
359;SDS011;168;48.872;9.226;2023-04-15T10:05:09;4.70;;;4.30;;
359;SDS011;168;48.872;9.226;2023-04-15T10:07:39;5.17;;;4.67;;
359;SDS011;168;48.872;9.226;2023-04-15T10:10:08;5.40;;;4.23;;
359;SDS011;168;48.872;9.226;2023-04-15T10:12:36;4.03;;;3.70;;
359;SDS011;168;48.872;9.226;2023-04-15T10:15:06;5.77;;;4.70;;
359;SDS011;168;48.872;9.226;2023-04-15T10:17:42;10.77;;;4.77;;
359;SDS011;168;48.872;9.226;2023-04-15T10:20:11;4.90;;;4.40;;
359;SDS011;168;48.872;9.226;2023-04-15T10:22:39;4.70;;;3.73;;
359;SDS011;168;48.872;9.226;2023-04-15T10:25:09;5.33;;;3.83;;
359;SDS011;168;48.872;9.226;2023-04-15T10:27:38;3.13;;;2.93;;
359;SDS011;168;48.872;9.226;2023-04-15T10:30:07;6.70;;;4.17;;
359;SDS011;168;48.872;9.226;2023-04-15T10:32:36;5.27;;;4.20;;
359;SDS011;168;48.872;9.226;2023-04-15T10:35:04;5.53;;;4.30;;
359;SDS011;168;48.872;9.226;2023-04-15T10:37:34;3.43;;;3.23;;
359;SDS011;168;48.872;9.226;2023-04-15T10:42:53;4.93;;;4.50;;
359;SDS011;168;48.872;9.226;2023-04-15T10:45:21;4.23;;;3.90;;
359;SDS011;168;48.872;9.226;2023-04-15T10:47:54;4.57;;;4.17;;
359;SDS011;168;48.872;9.226;2023-04-15T10:50:24;5.40;;;4.27;;
359;SDS011;168;48.872;9.226;2023-04-15T10:52:52;6.53;;;5.00;;
359;SDS011;168;48.872;9.226;2023-04-15T10:55:21;5.60;;;4.53;;
359;SDS011;168;48.872;9.226;2023-04-15T10:57:50;6.20;;;4.93;;
359;SDS011;168;48.872;9.226;2023-04-15T11:00:19;4.63;;;4.23;;
359;SDS011;168;48.872;9.226;2023-04-15T11:02:52;5.47;;;4.70;;
359;SDS011;168;48.872;9.226;2023-04-15T11:08:17;5.60;;;5.10;;
359;SDS011;168;48.872;9.226;2023-04-15T11:10:49;6.67;;;5.00;;
359;SDS011;168;48.872;9.226;2023-04-15T11:13:21;6.13;;;5.63;;
359;SDS011;168;48.872;9.226;2023-04-15T11:15:54;6.40;;;5.77;;
359;SDS011;168;48.872;9.226;2023-04-15T11:18:25;6.57;;;4.93;;
359;SDS011;168;48.872;9.226;2023-04-15T11:20:55;7.43;;;6.60;;
359;SDS011;168;48.872;9.226;2023-04-15T11:23:27;6.27;;;5.77;;
359;SDS011;168;48.872;9.226;2023-04-15T11:25:56;5.90;;;5.40;;
359;SDS011;168;48.872;9.226;2023-04-15T11:28:25;6.93;;;6.33;;
359;SDS011;168;48.872;9.226;2023-04-15T11:30:53;5.67;;;5.10;;
359;SDS011;168;48.872;9.226;2023-04-15T11:33:21;6.03;;;5.00;;
359;SDS011;168;48.872;9.226;2023-04-15T11:35:55;5.57;;;5.00;;
359;SDS011;168;48.872;9.226;2023-04-15T11:38:23;5.97;;;5.40;;
359;SDS011;168;48.872;9.226;2023-04-15T11:40:50;9.67;;;5.30;;
359;SDS011;168;48.872;9.226;2023-04-15T11:43:18;5.93;;;5.20;;
359;SDS011;168;48.872;9.226;2023-04-15T11:45:48;6.60;;;5.57;;
359;SDS011;168;48.872;9.226;2023-04-15T11:48:17;6.00;;;5.40;;
359;SDS011;168;48.872;9.226;2023-04-15T11:50:45;4.90;;;4.50;;
359;SDS011;168;48.872;9.226;2023-04-15T11:53:19;6.30;;;3.73;;
359;SDS011;168;48.872;9.226;2023-04-15T11:55:48;4.70;;;3.20;;
359;SDS011;168;48.872;9.226;2023-04-15T11:58:17;4.43;;;4.03;;
359;SDS011;168;48.872;9.226;2023-04-15T12:00:46;4.30;;;3.63;;
359;SDS011;168;48.872;9.226;2023-04-15T12:03:21;5.40;;;4.10;;
359;SDS011;168;48.872;9.226;2023-04-15T12:11:30;3.67;;;3.47;;
359;SDS011;168;48.872;9.226;2023-04-15T12:14:02;4.30;;;3.90;;
359;SDS011;168;48.872;9.226;2023-04-15T12:16:32;3.70;;;3.43;;
359;SDS011;168;48.872;9.226;2023-04-15T12:19:03;3.37;;;2.87;;
359;SDS011;168;48.872;9.226;2023-04-15T12:21:32;5.13;;;3.77;;
359;SDS011;168;48.872;9.226;2023-04-15T12:24:03;5.80;;;5.30;;
359;SDS011;168;48.872;9.226;2023-04-15T12:26:33;6.43;;;5.37;;
359;SDS011;168;48.872;9.226;2023-04-15T12:29:03;6.00;;;5.50;;
359;SDS011;168;48.872;9.226;2023-04-15T12:31:32;8.70;;;7.50;;
359;SDS011;168;48.872;9.226;2023-04-15T12:34:01;5.47;;;5.07;;
359;SDS011;168;48.872;9.226;2023-04-15T12:36:30;7.20;;;6.07;;
359;SDS011;168;48.872;9.226;2023-04-15T12:39:02;5.40;;;5.00;;
359;SDS011;168;48.872;9.226;2023-04-15T12:41:30;4.40;;;3.07;;
359;SDS011;168;48.872;9.226;2023-04-15T12:43:58;4.87;;;4.17;;
359;SDS011;168;48.872;9.226;2023-04-15T12:46:25;3.90;;;3.60;;
359;SDS011;168;48.872;9.226;2023-04-15T12:48:53;3.60;;;3.03;;
359;SDS011;168;48.872;9.226;2023-04-15T12:51:20;3.40;;;3.00;;
359;SDS011;168;48.872;9.226;2023-04-15T12:58:55;6.03;;;3.83;;
359;SDS011;168;48.872;9.226;2023-04-15T13:01:23;4.60;;;3.77;;
359;SDS011;168;48.872;9.226;2023-04-15T13:03:50;4.37;;;3.97;;
359;SDS011;168;48.872;9.226;2023-04-15T13:06:17;3.93;;;3.60;;
359;SDS011;168;48.872;9.226;2023-04-15T13:08:48;3.90;;;3.60;;
359;SDS011;168;48.872;9.226;2023-04-15T13:11:18;4.50;;;4.07;;
359;SDS011;168;48.872;9.226;2023-04-15T13:13:46;5.00;;;3.40;;
359;SDS011;168;48.872;9.226;2023-04-15T13:16:15;4.20;;;3.80;;
359;SDS011;168;48.872;9.226;2023-04-15T13:18:43;3.73;;;3.40;;
359;SDS011;168;48.872;9.226;2023-04-15T13:21:11;3.60;;;3.30;;
359;SDS011;168;48.872;9.226;2023-04-15T13:23:39;4.57;;;3.53;;
359;SDS011;168;48.872;9.226;2023-04-15T13:26:07;3.43;;;3.13;;
359;SDS011;168;48.872;9.226;2023-04-15T13:28:34;3.30;;;3.00;;
359;SDS011;168;48.872;9.226;2023-04-15T13:31:04;3.20;;;2.90;;
359;SDS011;168;48.872;9.226;2023-04-15T13:33:36;3.60;;;1.97;;
359;SDS011;168;48.872;9.226;2023-04-15T13:36:08;2.10;;;1.83;;
359;SDS011;168;48.872;9.226;2023-04-15T13:38:40;1.10;;;1.00;;
359;SDS011;168;48.872;9.226;2023-04-15T13:41:07;1.40;;;1.30;;
359;SDS011;168;48.872;9.226;2023-04-15T13:43:35;1.20;;;1.10;;
359;SDS011;168;48.872;9.226;2023-04-15T13:46:05;1.00;;;0.90;;
359;SDS011;168;48.872;9.226;2023-04-15T13:48:37;1.30;;;1.20;;
359;SDS011;168;48.872;9.226;2023-04-15T13:51:04;1.23;;;1.13;;
359;SDS011;168;48.872;9.226;2023-04-15T13:53:34;1.37;;;1.30;;
359;SDS011;168;48.872;9.226;2023-04-15T13:56:04;1.57;;;1.47;;
359;SDS011;168;48.872;9.226;2023-04-15T13:58:34;1.20;;;1.10;;
359;SDS011;168;48.872;9.226;2023-04-15T14:01:03;2.33;;;1.37;;
359;SDS011;168;48.872;9.226;2023-04-15T14:03:31;1.23;;;1.13;;
359;SDS011;168;48.872;9.226;2023-04-15T14:06:00;2.50;;;1.17;;
359;SDS011;168;48.872;9.226;2023-04-15T14:08:28;1.40;;;1.30;;
359;SDS011;168;48.872;9.226;2023-04-15T14:10:56;2.10;;;1.40;;
359;SDS011;168;48.872;9.226;2023-04-15T14:13:23;1.57;;;1.47;;
359;SDS011;168;48.872;9.226;2023-04-15T14:15:51;1.73;;;1.63;;
359;SDS011;168;48.872;9.226;2023-04-15T14:18:18;1.60;;;1.50;;
359;SDS011;168;48.872;9.226;2023-04-15T14:20:45;1.37;;;1.27;;
359;SDS011;168;48.872;9.226;2023-04-15T14:23:15;3.83;;;1.73;;
359;SDS011;168;48.872;9.226;2023-04-15T14:25:42;1.67;;;1.23;;
359;SDS011;168;48.872;9.226;2023-04-15T14:28:10;1.87;;;1.77;;
359;SDS011;168;48.872;9.226;2023-04-15T14:30:37;1.70;;;1.60;;
359;SDS011;168;48.872;9.226;2023-04-15T14:33:04;1.77;;;1.40;;
359;SDS011;168;48.872;9.226;2023-04-15T14:35:32;2.47;;;2.27;;
359;SDS011;168;48.872;9.226;2023-04-15T14:37:59;3.20;;;2.13;;
359;SDS011;168;48.872;9.226;2023-04-15T14:40:28;2.03;;;1.80;;
359;SDS011;168;48.872;9.226;2023-04-15T14:42:55;1.97;;;1.87;;
359;SDS011;168;48.872;9.226;2023-04-15T14:45:23;1.67;;;1.50;;
359;SDS011;168;48.872;9.226;2023-04-15T14:47:50;1.87;;;1.73;;
359;SDS011;168;48.872;9.226;2023-04-15T14:50:18;1.80;;;1.70;;
359;SDS011;168;48.872;9.226;2023-04-15T14:52:45;2.27;;;1.80;;
359;SDS011;168;48.872;9.226;2023-04-15T14:55:13;4.70;;;1.77;;
359;SDS011;168;48.872;9.226;2023-04-15T14:57:41;1.80;;;1.70;;
359;SDS011;168;48.872;9.226;2023-04-15T15:00:09;2.37;;;1.50;;
359;SDS011;168;48.872;9.226;2023-04-15T15:02:37;2.90;;;1.97;;
359;SDS011;168;48.872;9.226;2023-04-15T15:05:06;2.30;;;1.87;;
359;SDS011;168;48.872;9.226;2023-04-15T15:07:35;4.53;;;1.87;;
359;SDS011;168;48.872;9.226;2023-04-15T15:10:04;2.03;;;1.83;;
359;SDS011;168;48.872;9.226;2023-04-15T15:12:32;2.57;;;2.37;;
359;SDS011;168;48.872;9.226;2023-04-15T15:15:01;2.70;;;1.70;;
359;SDS011;168;48.872;9.226;2023-04-15T15:17:29;1.97;;;1.87;;
359;SDS011;168;48.872;9.226;2023-04-15T15:19:56;1.60;;;1.50;;
359;SDS011;168;48.872;9.226;2023-04-15T15:22:24;2.03;;;1.70;;
359;SDS011;168;48.872;9.226;2023-04-15T15:24:51;2.87;;;2.13;;
359;SDS011;168;48.872;9.226;2023-04-15T15:27:19;2.90;;;2.03;;
359;SDS011;168;48.872;9.226;2023-04-15T15:29:46;3.30;;;3.10;;
359;SDS011;168;48.872;9.226;2023-04-15T15:32:15;1.77;;;1.67;;
359;SDS011;168;48.872;9.226;2023-04-15T15:34:42;2.33;;;2.13;;
359;SDS011;168;48.872;9.226;2023-04-15T15:37:09;4.60;;;1.80;;
359;SDS011;168;48.872;9.226;2023-04-15T15:39:37;2.23;;;2.00;;
359;SDS011;168;48.872;9.226;2023-04-15T15:42:04;2.20;;;1.93;;
359;SDS011;168;48.872;9.226;2023-04-15T15:44:32;3.10;;;1.70;;
359;SDS011;168;48.872;9.226;2023-04-15T15:47:00;1.70;;;1.60;;
359;SDS011;168;48.872;9.226;2023-04-15T15:49:30;1.90;;;1.80;;
359;SDS011;168;48.872;9.226;2023-04-15T15:51:58;2.57;;;2.37;;
359;SDS011;168;48.872;9.226;2023-04-15T15:54:25;4.30;;;2.00;;
359;SDS011;168;48.872;9.226;2023-04-15T15:56:53;2.70;;;2.50;;
359;SDS011;168;48.872;9.226;2023-04-15T15:59:22;2.37;;;2.17;;
359;SDS011;168;48.872;9.226;2023-04-15T16:01:51;4.03;;;2.37;;
359;SDS011;168;48.872;9.226;2023-04-15T16:04:18;3.43;;;3.13;;
359;SDS011;168;48.872;9.226;2023-04-15T16:06:48;3.47;;;3.17;;